Aviation Digital Data Service (ADDS)

Output produced by METARs form (1305 UTC 12 April 2021)
found at http://www.aviationweather.gov/metar/data/
 
Forecast for: CYKA (KAMLOOPS AIRPORT, BC, CA)
Text: TAF CYKA 121238Z 1213/1301 VRB03KT P6SM SCT100
Forecast period: 1300 to 1600 UTC 12 April 2021
Forecast type: FROM: standard forecast or significant change
Winds: variable direction winds at 3 MPH (3 knots; 1.5 m/s)
Visibility: 6 or more miles (10+ km)
Ceiling: at least 12,000 feet AGL
Clouds: scattered clouds at 10000 feet AGL
Weather: no significant weather forecast for this period
Text: TEMPO 1213/1301 BKN090
Forecast period: 1300 UTC 12 April 2021 to 0100 UTC 13 April 2021
Forecast type: TEMPORARY: The following changes expected for less than half the time period
Visibility: missing
Ceiling: 9000 feet AGL
Clouds: broken clouds at 9000 feet AGL
Weather: no significant weather forecast for this period
Text: BECMG 1216/1218 10008KT RMK NXT FCST BY 121900Z
Forecast period: 1600 UTC 12 April 2021 to 0100 UTC 13 April 2021
Forecast type: BECOMING: Conditions expected to become as follows by 1800 UTC 12 April 2021
Winds: from the E (100 degrees) at 9 MPH (8 knots; 4.1 m/s)
Visibility: 6 or more miles (10+ km)
Ceiling: at least 12,000 feet AGL
Clouds: scattered clouds at 10000 feet AGL
Weather: no significant weather forecast for this period